sensor_id;sensor_type;location;lat;lon;timestamp;pressure;altitude;pressure_sealevel;temperature;humidity
29121;BME280;16191;49.548;8.658;2022-11-20T00:01:07;99961.56;;;3.06;100.00
29121;BME280;16191;49.548;8.658;2022-11-20T00:03:35;99963.19;;;3.13;100.00
29121;BME280;16191;49.548;8.658;2022-11-20T00:06:07;99959.69;;;3.16;100.00
29121;BME280;16191;49.548;8.658;2022-11-20T00:08:34;99959.69;;;3.17;100.00
29121;BME280;16191;49.548;8.658;2022-11-20T00:11:08;99954.59;;;3.13;100.00
29121;BME280;16191;49.548;8.658;2022-11-20T00:13:41;99954.88;;;2.93;100.00
29121;BME280;16191;49.548;8.658;2022-11-20T00:16:10;99962.38;;;3.09;100.00
29121;BME280;16191;49.548;8.658;2022-11-20T00:18:37;99957.09;;;3.17;100.00
29121;BME280;16191;49.548;8.658;2022-11-20T00:21:05;99960.63;;;3.10;100.00
29121;BME280;16191;49.548;8.658;2022-11-20T00:23:33;99973.50;;;3.12;100.00
29121;BME280;16191;49.548;8.658;2022-11-20T00:26:04;99966.56;;;3.17;100.00
29121;BME280;16191;49.548;8.658;2022-11-20T00:28:31;99960.63;;;3.12;100.00
29121;BME280;16191;49.548;8.658;2022-11-20T00:31:06;99955.44;;;3.13;100.00
29121;BME280;16191;49.548;8.658;2022-11-20T00:33:34;99951.13;;;3.15;100.00
29121;BME280;16191;49.548;8.658;2022-11-20T00:36:09;99961.50;;;3.09;100.00
29121;BME280;16191;49.548;8.658;2022-11-20T00:38:36;99961.50;;;3.10;100.00
29121;BME280;16191;49.548;8.658;2022-11-20T00:41:06;99952.06;;;3.09;100.00
29121;BME280;16191;49.548;8.658;2022-11-20T00:43:33;99944.31;;;3.09;100.00
29121;BME280;16191;49.548;8.658;2022-11-20T00:46:06;99952.06;;;3.08;100.00
29121;BME280;16191;49.548;8.658;2022-11-20T00:48:33;99939.44;;;2.91;100.00
29121;BME280;16191;49.548;8.658;2022-11-20T00:51:00;99947.88;;;3.02;100.00
29121;BME280;16191;49.548;8.658;2022-11-20T00:53:27;99945.19;;;3.08;100.00
29121;BME280;16191;49.548;8.658;2022-11-20T00:56:03;99948.13;;;2.84;100.00
29121;BME280;16191;49.548;8.658;2022-11-20T00:58:32;99952.22;;;3.00;100.00
29121;BME280;16191;49.548;8.658;2022-11-20T01:03:33;99955.78;;;2.90;100.00
29121;BME280;16191;49.548;8.658;2022-11-20T01:06:22;99954.13;;;2.86;100.00
29121;BME280;16191;49.548;8.658;2022-11-20T01:08:50;99961.78;;;2.92;100.00
29121;BME280;16191;49.548;8.658;2022-11-20T01:11:21;99971.09;;;3.02;100.00
29121;BME280;16191;49.548;8.658;2022-11-20T01:13:50;99967.66;;;3.02;100.00
29121;BME280;16191;49.548;8.658;2022-11-20T01:16:20;99964.97;;;3.06;100.00
29121;BME280;16191;49.548;8.658;2022-11-20T01:18:49;99963.97;;;3.18;100.00
29121;BME280;16191;49.548;8.658;2022-11-20T01:21:19;99967.69;;;3.00;100.00
29121;BME280;16191;49.548;8.658;2022-11-20T01:23:47;99970.13;;;3.08;100.00
29121;BME280;16191;49.548;8.658;2022-11-20T01:26:21;99963.34;;;3.02;100.00
29121;BME280;16191;49.548;8.658;2022-11-20T01:28:48;99959.78;;;3.09;100.00
29121;BME280;16191;49.548;8.658;2022-11-20T01:31:33;99968.41;;;3.07;100.00
29121;BME280;16191;49.548;8.658;2022-11-20T01:34:04;99959.06;;;3.03;100.00
29121;BME280;16191;49.548;8.658;2022-11-20T01:36:32;99956.28;;;3.14;100.00
29121;BME280;16191;49.548;8.658;2022-11-20T01:39:02;99958.13;;;3.05;100.00
29121;BME280;16191;49.548;8.658;2022-11-20T01:41:30;99960.63;;;3.12;100.00
29121;BME280;16191;49.548;8.658;2022-11-20T01:44:18;99964.97;;;3.06;100.00
29121;BME280;16191;49.548;8.658;2022-11-20T01:46:59;99955.69;;;2.96;100.00
29121;BME280;16191;49.548;8.658;2022-11-20T01:49:35;99942.63;;;3.07;100.00
29121;BME280;16191;49.548;8.658;2022-11-20T01:52:07;99939.22;;;3.06;100.00
29121;BME280;16191;49.548;8.658;2022-11-20T01:54:46;99937.66;;;2.96;100.00
29121;BME280;16191;49.548;8.658;2022-11-20T01:57:35;99932.53;;;2.95;100.00
29121;BME280;16191;49.548;8.658;2022-11-20T02:00:24;99936.72;;;3.02;100.00
29121;BME280;16191;49.548;8.658;2022-11-20T02:03:13;99928.13;;;3.01;100.00
29121;BME280;16191;49.548;8.658;2022-11-20T02:06:07;99934.06;;;3.06;100.00
29121;BME280;16191;49.548;8.658;2022-11-20T02:08:56;99952.09;;;3.06;100.00
29121;BME280;16191;49.548;8.658;2022-11-20T02:11:43;99942.75;;;3.01;100.00
29121;BME280;16191;49.548;8.658;2022-11-20T02:14:09;99934.84;;;3.10;100.00
29121;BME280;16191;49.548;8.658;2022-11-20T02:16:44;99926.25;;;3.11;100.00
29121;BME280;16191;49.548;8.658;2022-11-20T02:19:31;99927.06;;;3.15;100.00
29121;BME280;16191;49.548;8.658;2022-11-20T02:22:14;99932.25;;;3.12;100.00
29121;BME280;16191;49.548;8.658;2022-11-20T02:24:46;99930.41;;;3.21;100.00
29121;BME280;16191;49.548;8.658;2022-11-20T02:27:15;99931.25;;;3.22;100.00
29121;BME280;16191;49.548;8.658;2022-11-20T02:30:02;99938.13;;;3.21;100.00
29121;BME280;16191;49.548;8.658;2022-11-20T02:32:32;99934.69;;;3.22;100.00
29121;BME280;16191;49.548;8.658;2022-11-20T02:35:09;99941.66;;;3.16;100.00
29121;BME280;16191;49.548;8.658;2022-11-20T02:37:38;99933.03;;;3.18;100.00
29121;BME280;16191;49.548;8.658;2022-11-20T02:40:07;99926.94;;;3.22;100.00
29121;BME280;16191;49.548;8.658;2022-11-20T02:42:34;99910.69;;;3.17;100.00
29121;BME280;16191;49.548;8.658;2022-11-20T02:45:00;99909.88;;;3.15;100.00
29121;BME280;16191;49.548;8.658;2022-11-20T02:47:27;99900.50;;;3.09;100.00
29121;BME280;16191;49.548;8.658;2022-11-20T02:49:54;99894.31;;;3.20;100.00
29121;BME280;16191;49.548;8.658;2022-11-20T02:52:20;99899.50;;;3.18;100.00
29121;BME280;16191;49.548;8.658;2022-11-20T02:54:47;99898.78;;;3.10;100.00
29121;BME280;16191;49.548;8.658;2022-11-20T02:57:14;99904.69;;;3.17;100.00
29121;BME280;16191;49.548;8.658;2022-11-20T02:59:40;99918.44;;;3.16;100.00
29121;BME280;16191;49.548;8.658;2022-11-20T03:02:07;99915.84;;;3.17;100.00
29121;BME280;16191;49.548;8.658;2022-11-20T03:04:34;99914.91;;;3.23;100.00
29121;BME280;16191;49.548;8.658;2022-11-20T03:07:01;99907.06;;;3.29;100.00
29121;BME280;16191;49.548;8.658;2022-11-20T03:09:28;99905.59;;;3.14;100.00
29121;BME280;16191;49.548;8.658;2022-11-20T03:11:55;99909.06;;;3.10;100.00
29121;BME280;16191;49.548;8.658;2022-11-20T03:14:22;99903.91;;;3.12;100.00
29121;BME280;16191;49.548;8.658;2022-11-20T03:16:49;99907.34;;;3.10;100.00
29121;BME280;16191;49.548;8.658;2022-11-20T03:19:16;99904.78;;;3.10;100.00
29121;BME280;16191;49.548;8.658;2022-11-20T03:21:43;99897.94;;;3.08;100.00
29121;BME280;16191;49.548;8.658;2022-11-20T03:24:09;99901.34;;;3.10;100.00
29121;BME280;16191;49.548;8.658;2022-11-20T03:26:36;99908.09;;;3.19;100.00
29121;BME280;16191;49.548;8.658;2022-11-20T03:29:04;99909.63;;;3.29;100.00
29121;BME280;16191;49.548;8.658;2022-11-20T03:31:33;99904.63;;;3.20;100.00
29121;BME280;16191;49.548;8.658;2022-11-20T03:34:02;99897.59;;;3.28;100.00
29121;BME280;16191;49.548;8.658;2022-11-20T03:36:29;99900.16;;;3.29;100.00
29121;BME280;16191;49.548;8.658;2022-11-20T03:38:57;99908.72;;;3.31;100.00
29121;BME280;16191;49.548;8.658;2022-11-20T03:41:28;99902.09;;;3.17;100.00
29121;BME280;16191;49.548;8.658;2022-11-20T03:43:58;99914.88;;;3.24;100.00
29121;BME280;16191;49.548;8.658;2022-11-20T03:46:26;99910.44;;;3.32;100.00
29121;BME280;16191;49.548;8.658;2022-11-20T03:48:54;99915.44;;;3.43;100.00
29121;BME280;16191;49.548;8.658;2022-11-20T03:51:23;99912.81;;;3.44;100.00
29121;BME280;16191;49.548;8.658;2022-11-20T03:53:51;99916.47;;;3.31;100.00
29121;BME280;16191;49.548;8.658;2022-11-20T03:56:22;99906.94;;;3.36;100.00
29121;BME280;16191;49.548;8.658;2022-11-20T03:58:49;99914.69;;;3.35;100.00
29121;BME280;16191;49.548;8.658;2022-11-20T04:01:21;99911.16;;;3.42;100.00
29121;BME280;16191;49.548;8.658;2022-11-20T04:03:51;99913.75;;;3.40;100.00
29121;BME280;16191;49.548;8.658;2022-11-20T04:06:21;99903.41;;;3.42;100.00
29121;BME280;16191;49.548;8.658;2022-11-20T04:08:48;99902.69;;;3.32;100.00
29121;BME280;16191;49.548;8.658;2022-11-20T04:11:23;99905.25;;;3.34;100.00
29121;BME280;16191;49.548;8.658;2022-11-20T04:13:54;99908.56;;;3.42;100.00
29121;BME280;16191;49.548;8.658;2022-11-20T04:16:22;99902.56;;;3.41;100.00
29121;BME280;16191;49.548;8.658;2022-11-20T04:18:53;99907.25;;;3.18;100.00
29121;BME280;16191;49.548;8.658;2022-11-20T04:21:20;99908.88;;;3.24;100.00
29121;BME280;16191;49.548;8.658;2022-11-20T04:23:48;99900.94;;;3.34;100.00
29121;BME280;16191;49.548;8.658;2022-11-20T04:26:15;99902.78;;;3.26;100.00
29121;BME280;16191;49.548;8.658;2022-11-20T04:28:42;99896.63;;;3.35;100.00
29121;BME280;16191;49.548;8.658;2022-11-20T04:31:13;99899.28;;;3.30;100.00
29121;BME280;16191;49.548;8.658;2022-11-20T04:33:40;99892.34;;;3.34;100.00
29121;BME280;16191;49.548;8.658;2022-11-20T04:36:11;99890.50;;;3.42;100.00
29121;BME280;16191;49.548;8.658;2022-11-20T04:38:38;99893.06;;;3.43;100.00
29121;BME280;16191;49.548;8.658;2022-11-20T04:41:06;99888.78;;;3.42;100.00
29121;BME280;16191;49.548;8.658;2022-11-20T04:43:34;99891.53;;;3.32;100.00
29121;BME280;16191;49.548;8.658;2022-11-20T04:46:01;99887.06;;;3.41;100.00
29121;BME280;16191;49.548;8.658;2022-11-20T04:48:29;99883.56;;;3.46;100.00
29121;BME280;16191;49.548;8.658;2022-11-20T04:50:56;99880.88;;;3.52;100.00
29121;BME280;16191;49.548;8.658;2022-11-20T04:53:23;99890.50;;;3.42;100.00
29121;BME280;16191;49.548;8.658;2022-11-20T04:55:50;99889.59;;;3.46;100.00
29121;BME280;16191;49.548;8.658;2022-11-20T04:58:17;99894.97;;;3.31;100.00
29121;BME280;16191;49.548;8.658;2022-11-20T05:00:44;99888.75;;;3.44;100.00
29121;BME280;16191;49.548;8.658;2022-11-20T05:03:10;99886.06;;;3.49;100.00
29121;BME280;16191;49.548;8.658;2022-11-20T05:05:37;99873.94;;;3.55;100.00
29121;BME280;16191;49.548;8.658;2022-11-20T05:08:04;99871.41;;;3.52;100.00
29121;BME280;16191;49.548;8.658;2022-11-20T05:10:31;99871.41;;;3.52;100.00
29121;BME280;16191;49.548;8.658;2022-11-20T05:12:57;99866.25;;;3.51;100.00
29121;BME280;16191;49.548;8.658;2022-11-20T05:15:24;99876.63;;;3.48;100.00
29121;BME280;16191;49.548;8.658;2022-11-20T05:17:52;99875.63;;;3.56;100.00
29121;BME280;16191;49.548;8.658;2022-11-20T05:20:19;99883.38;;;3.56;100.00
29121;BME280;16191;49.548;8.658;2022-11-20T05:22:46;99870.41;;;3.59;100.00
29121;BME280;16191;49.548;8.658;2022-11-20T05:25:13;99867.03;;;3.56;100.00
29121;BME280;16191;49.548;8.658;2022-11-20T05:27:39;99865.19;;;3.64;100.00
29121;BME280;16191;49.548;8.658;2022-11-20T05:30:07;99861.81;;;3.59;100.00
29121;BME280;16191;49.548;8.658;2022-11-20T05:32:34;99860.03;;;3.62;100.00
29121;BME280;16191;49.548;8.658;2022-11-20T05:35:01;99853.16;;;3.63;100.00
29121;BME280;16191;49.548;8.658;2022-11-20T05:37:28;99861.66;;;3.68;100.00
29121;BME280;16191;49.548;8.658;2022-11-20T05:39:54;99852.16;;;3.68;100.00
29121;BME280;16191;49.548;8.658;2022-11-20T05:42:21;99857.25;;;3.73;100.00
29121;BME280;16191;49.548;8.658;2022-11-20T05:45:02;99855.50;;;3.73;100.00
29121;BME280;16191;49.548;8.658;2022-11-20T05:47:32;99860.00;;;3.65;100.00
29121;BME280;16191;49.548;8.658;2022-11-20T05:49:59;99856.41;;;3.71;100.00
29121;BME280;16191;49.548;8.658;2022-11-20T05:52:29;99852.97;;;3.72;100.00
29121;BME280;16191;49.548;8.658;2022-11-20T05:54:57;99857.22;;;3.74;100.00
29121;BME280;16191;49.548;8.658;2022-11-20T05:57:23;99852.97;;;3.72;100.00
29121;BME280;16191;49.548;8.658;2022-11-20T05:59:50;99859.00;;;3.71;100.00
29121;BME280;16191;49.548;8.658;2022-11-20T06:02:17;99855.41;;;3.79;100.00
29121;BME280;16191;49.548;8.658;2022-11-20T06:04:44;99854.72;;;3.70;100.00
29121;BME280;16191;49.548;8.658;2022-11-20T06:07:11;99856.41;;;3.71;100.00
29121;BME280;16191;49.548;8.658;2022-11-20T06:09:37;99861.47;;;3.77;100.00
29121;BME280;16191;49.548;8.658;2022-11-20T06:12:04;99854.66;;;3.73;100.00
29121;BME280;16191;49.548;8.658;2022-11-20T06:14:31;99850.28;;;3.76;100.00
29121;BME280;16191;49.548;8.658;2022-11-20T06:16:58;99843.34;;;3.80;100.00
29121;BME280;16191;49.548;8.658;2022-11-20T06:19:25;99847.56;;;3.86;100.00
29121;BME280;16191;49.548;8.658;2022-11-20T06:21:52;99852.69;;;3.87;100.00
29121;BME280;16191;49.548;8.658;2022-11-20T06:24:18;99851.78;;;3.90;100.00
29121;BME280;16191;49.548;8.658;2022-11-20T06:26:45;99852.75;;;3.84;100.00
29121;BME280;16191;49.548;8.658;2022-11-20T06:29:12;99849.38;;;3.81;100.00
29121;BME280;16191;49.548;8.658;2022-11-20T06:31:39;99854.56;;;3.79;100.00
29121;BME280;16191;49.548;8.658;2022-11-20T06:34:06;99857.03;;;3.85;100.00
29121;BME280;16191;49.548;8.658;2022-11-20T06:36:33;99859.78;;;3.76;100.00
29121;BME280;16191;49.548;8.658;2022-11-20T06:39:00;99851.84;;;3.85;100.00
29121;BME280;16191;49.548;8.658;2022-11-20T06:41:27;99855.22;;;3.89;100.00
29121;BME280;16191;49.548;8.658;2022-11-20T06:43:54;99860.31;;;3.92;100.00
29121;BME280;16191;49.548;8.658;2022-11-20T06:46:21;99857.88;;;3.86;100.00
29121;BME280;16191;49.548;8.658;2022-11-20T06:48:49;99851.78;;;3.90;100.00
29121;BME280;16191;49.548;8.658;2022-11-20T06:51:16;99854.19;;;3.97;100.00
29121;BME280;16191;49.548;8.658;2022-11-20T06:53:43;99855.97;;;3.94;100.00
29121;BME280;16191;49.548;8.658;2022-11-20T06:56:10;99857.00;;;3.87;100.00
29121;BME280;16191;49.548;8.658;2022-11-20T06:58:37;99866.44;;;3.88;100.00
29121;BME280;16191;49.548;8.658;2022-11-20T07:01:14;99864.63;;;3.91;100.00
29121;BME280;16191;49.548;8.658;2022-11-20T07:03:41;99869.78;;;3.91;100.00
29121;BME280;16191;49.548;8.658;2022-11-20T07:06:08;99875.72;;;3.96;100.00
29121;BME280;16191;49.548;8.658;2022-11-20T07:08:36;99884.19;;;4.03;100.00
29121;BME280;16191;49.548;8.658;2022-11-20T07:11:05;99874.16;;;3.89;100.00
29121;BME280;16191;49.548;8.658;2022-11-20T07:13:32;99877.53;;;3.91;100.00
29121;BME280;16191;49.548;8.658;2022-11-20T07:16:00;99877.63;;;3.88;100.00
29121;BME280;16191;49.548;8.658;2022-11-20T07:18:27;99874.94;;;3.91;100.00
29121;BME280;16191;49.548;8.658;2022-11-20T07:20:54;99876.56;;;3.97;100.00
29121;BME280;16191;49.548;8.658;2022-11-20T07:23:20;99873.19;;;3.93;100.00
29121;BME280;16191;49.548;8.658;2022-11-20T07:25:47;99874.25;;;3.83;100.00
29121;BME280;16191;49.548;8.658;2022-11-20T07:28:14;99873.97;;;3.97;100.00
29121;BME280;16191;49.548;8.658;2022-11-20T07:30:40;99879.91;;;4.02;100.00
29121;BME280;16191;49.548;8.658;2022-11-20T07:33:07;99879.94;;;4.00;100.00
29121;BME280;16191;49.548;8.658;2022-11-20T07:35:34;99879.94;;;4.00;100.00
29121;BME280;16191;49.548;8.658;2022-11-20T07:38:02;99880.69;;;4.07;100.00
29121;BME280;16191;49.548;8.658;2022-11-20T07:40:29;99880.78;;;4.01;100.00
29121;BME280;16191;49.548;8.658;2022-11-20T07:42:55;99873.81;;;4.06;100.00
29121;BME280;16191;49.548;8.658;2022-11-20T07:45:23;99877.94;;;4.13;100.00
29121;BME280;16191;49.548;8.658;2022-11-20T07:47:51;99880.50;;;4.14;100.00
29121;BME280;16191;49.548;8.658;2022-11-20T07:50:18;99877.16;;;4.11;100.00
29121;BME280;16191;49.548;8.658;2022-11-20T07:52:45;99877.09;;;4.12;100.00
29121;BME280;16191;49.548;8.658;2022-11-20T07:55:13;99872.66;;;4.19;100.00
29121;BME280;16191;49.548;8.658;2022-11-20T07:57:40;99874.38;;;4.20;100.00
29121;BME280;16191;49.548;8.658;2022-11-20T08:00:09;99878.59;;;4.24;100.00
29121;BME280;16191;49.548;8.658;2022-11-20T08:02:40;99881.81;;;4.34;100.00
29121;BME280;16191;49.548;8.658;2022-11-20T08:05:10;99882.84;;;4.27;100.00
29121;BME280;16191;49.548;8.658;2022-11-20T08:07:38;99888.72;;;4.33;100.00
29121;BME280;16191;49.548;8.658;2022-11-20T08:10:07;99882.03;;;4.25;100.00
29121;BME280;16191;49.548;8.658;2022-11-20T08:12:34;99883.72;;;4.26;100.00
29121;BME280;16191;49.548;8.658;2022-11-20T08:15:20;99899.28;;;4.23;100.00
29121;BME280;16191;49.548;8.658;2022-11-20T08:17:46;99904.47;;;4.21;100.00
29121;BME280;16191;49.548;8.658;2022-11-20T08:20:34;99900.09;;;4.25;100.00
29121;BME280;16191;49.548;8.658;2022-11-20T08:23:02;99911.00;;;4.37;100.00
29121;BME280;16191;49.548;8.658;2022-11-20T08:25:30;99916.84;;;4.47;100.00
29121;BME280;16191;49.548;8.658;2022-11-20T08:28:02;99923.69;;;4.50;100.00
29121;BME280;16191;49.548;8.658;2022-11-20T08:30:45;99919.44;;;4.47;100.00
29121;BME280;16191;49.548;8.658;2022-11-20T08:33:12;99923.69;;;4.50;100.00
29121;BME280;16191;49.548;8.658;2022-11-20T08:35:39;99925.44;;;4.49;100.00
29121;BME280;16191;49.548;8.658;2022-11-20T08:38:08;99924.78;;;4.38;100.00
29121;BME280;16191;49.548;8.658;2022-11-20T08:40:35;99933.53;;;4.32;100.00
29121;BME280;16191;49.548;8.658;2022-11-20T08:43:02;99943.44;;;4.10;100.00
29121;BME280;16191;49.548;8.658;2022-11-20T08:45:29;99940.13;;;4.04;100.00
29121;BME280;16191;49.548;8.658;2022-11-20T08:48:02;99944.44;;;4.02;100.00
29121;BME280;16191;49.548;8.658;2022-11-20T08:50:29;99940.78;;;4.12;100.00
29121;BME280;16191;49.548;8.658;2022-11-20T08:53:04;99946.59;;;4.25;100.00
29121;BME280;16191;49.548;8.658;2022-11-20T08:55:32;99955.31;;;4.19;100.00
29121;BME280;16191;49.548;8.658;2022-11-20T08:58:03;99947.69;;;4.11;100.00
29121;BME280;16191;49.548;8.658;2022-11-20T09:00:30;99955.28;;;4.21;100.00
29121;BME280;16191;49.548;8.658;2022-11-20T09:02:58;99951.91;;;4.16;100.00
29121;BME280;16191;49.548;8.658;2022-11-20T09:05:25;99953.75;;;4.10;100.00
29121;BME280;16191;49.548;8.658;2022-11-20T09:07:51;99948.59;;;4.10;100.00
29121;BME280;16191;49.548;8.658;2022-11-20T09:10:18;99948.75;;;4.03;100.00
29121;BME280;16191;49.548;8.658;2022-11-20T09:12:54;99950.53;;;3.99;100.00
29121;BME280;16191;49.548;8.658;2022-11-20T09:15:22;99953.78;;;4.09;100.00
29121;BME280;16191;49.548;8.658;2022-11-20T09:17:53;99951.06;;;4.15;100.00
29121;BME280;16191;49.548;8.658;2022-11-20T09:20:20;99953.66;;;4.15;100.00
29121;BME280;16191;49.548;8.658;2022-11-20T09:22:47;99951.78;;;4.23;100.00
29121;BME280;16191;49.548;8.658;2022-11-20T09:25:14;99962.97;;;4.24;100.00
29121;BME280;16191;49.548;8.658;2022-11-20T09:27:41;99952.38;;;4.36;100.00
29121;BME280;16191;49.548;8.658;2022-11-20T09:30:10;99954.00;;;4.41;100.00
29121;BME280;16191;49.548;8.658;2022-11-20T09:32:38;99954.03;;;4.40;100.00
29121;BME280;16191;49.548;8.658;2022-11-20T09:35:06;99954.84;;;4.42;100.00
29121;BME280;16191;49.548;8.658;2022-11-20T09:37:33;99951.69;;;4.28;100.00
29121;BME280;16191;49.548;8.658;2022-11-20T09:40:00;99956.97;;;4.22;100.00
29121;BME280;16191;49.548;8.658;2022-11-20T09:45:28;99954.41;;;4.20;100.00
29121;BME280;16191;49.548;8.658;2022-11-20T09:50:37;99962.69;;;4.37;100.00
29121;BME280;16191;49.548;8.658;2022-11-20T09:53:12;99953.16;;;4.39;100.00
29121;BME280;16191;49.548;8.658;2022-11-20T09:55:40;99950.44;;;4.47;100.00
29121;BME280;16191;49.548;8.658;2022-11-20T09:58:15;99955.81;;;4.36;100.00
29121;BME280;16191;49.548;8.658;2022-11-20T10:00:47;99947.91;;;4.44;100.00
29121;BME280;16191;49.548;8.658;2022-11-20T10:03:19;99947.75;;;4.53;100.00
29121;BME280;16191;49.548;8.658;2022-11-20T10:05:52;99947.97;;;4.41;100.00
29121;BME280;16191;49.548;8.658;2022-11-20T10:08:29;99946.13;;;4.47;100.00
29121;BME280;16191;49.548;8.658;2022-11-20T10:11:13;99942.06;;;4.34;100.00
29121;BME280;16191;49.548;8.658;2022-11-20T10:13:56;99947.00;;;4.46;100.00
29121;BME280;16191;49.548;8.658;2022-11-20T10:16:53;99946.88;;;4.53;100.00
29121;BME280;16191;49.548;8.658;2022-11-20T10:24:56;99957.75;;;4.68;100.00
29121;BME280;16191;49.548;8.658;2022-11-20T10:30:22;99945.25;;;4.48;100.00
29121;BME280;16191;49.548;8.658;2022-11-20T10:33:04;99949.16;;;4.66;100.00
29121;BME280;16191;49.548;8.658;2022-11-20T10:35:41;99942.19;;;4.70;100.00
29121;BME280;16191;49.548;8.658;2022-11-20T10:38:14;99941.34;;;4.69;100.00
29121;BME280;16191;49.548;8.658;2022-11-20T10:40:52;99931.06;;;4.66;100.00
29121;BME280;16191;49.548;8.658;2022-11-20T10:43:32;99926.56;;;4.76;100.00
29121;BME280;16191;49.548;8.658;2022-11-20T10:46:05;99927.38;;;4.76;100.00
29121;BME280;16191;49.548;8.658;2022-11-20T10:48:36;99924.06;;;4.71;100.00
29121;BME280;16191;49.548;8.658;2022-11-20T10:51:14;99916.16;;;4.77;100.00
29121;BME280;16191;49.548;8.658;2022-11-20T10:53:56;99927.13;;;4.89;100.00
29121;BME280;16191;49.548;8.658;2022-11-20T10:56:27;99920.19;;;4.91;100.00
29121;BME280;16191;49.548;8.658;2022-11-20T11:01:58;99913.19;;;4.96;100.00
29121;BME280;16191;49.548;8.658;2022-11-20T11:04:36;99912.34;;;4.95;100.00
29121;BME280;16191;49.548;8.658;2022-11-20T11:07:12;99909.78;;;4.94;100.00
29121;BME280;16191;49.548;8.658;2022-11-20T11:09:50;99905.28;;;5.00;100.00
29121;BME280;16191;49.548;8.658;2022-11-20T11:12:20;99903.38;;;5.08;100.00
29121;BME280;16191;49.548;8.658;2022-11-20T11:14:50;99899.75;;;5.17;100.00
29121;BME280;16191;49.548;8.658;2022-11-20T11:17:31;99898.69;;;5.24;100.00
29121;BME280;16191;49.548;8.658;2022-11-20T11:20:04;99895.28;;;5.22;100.00
29121;BME280;16191;49.548;8.658;2022-11-20T11:22:42;99895.53;;;5.13;100.00
29121;BME280;16191;49.548;8.658;2022-11-20T11:25:20;99900.94;;;5.02;100.00
29121;BME280;16191;49.548;8.658;2022-11-20T11:27:48;99898.06;;;5.14;100.00
29121;BME280;16191;49.548;8.658;2022-11-20T11:30:17;99902.63;;;5.03;100.00
29121;BME280;16191;49.548;8.658;2022-11-20T11:32:44;99893.91;;;5.09;100.00
29121;BME280;16191;49.548;8.658;2022-11-20T11:35:22;99888.75;;;5.07;100.00
29121;BME280;16191;49.548;8.658;2022-11-20T11:37:51;99891.25;;;5.12;100.00
29121;BME280;16191;49.548;8.658;2022-11-20T11:40:21;99889.44;;;5.15;100.00
29121;BME280;16191;49.548;8.658;2022-11-20T11:42:58;99890.28;;;5.16;100.00
29121;BME280;16191;49.548;8.658;2022-11-20T11:45:29;99890.00;;;5.27;100.00
29121;BME280;16191;49.548;8.658;2022-11-20T11:47:58;99887.13;;;5.03;100.00
29121;BME280;16191;49.548;8.658;2022-11-20T11:50:28;99873.66;;;5.25;100.00
29121;BME280;16191;49.548;8.658;2022-11-20T11:53:03;99863.84;;;5.39;100.00
29121;BME280;16191;49.548;8.658;2022-11-20T11:55:42;99868.84;;;5.45;100.00
29121;BME280;16191;49.548;8.658;2022-11-20T11:58:34;99867.97;;;5.44;100.00
29121;BME280;16191;49.548;8.658;2022-11-20T12:01:21;99861.63;;;5.58;100.00
29121;BME280;16191;49.548;8.658;2022-11-20T12:06:43;99870.84;;;5.66;100.00
29121;BME280;16191;49.548;8.658;2022-11-20T12:09:12;99856.81;;;5.75;100.00
29121;BME280;16191;49.548;8.658;2022-11-20T12:14:34;99850.69;;;5.79;100.00
29121;BME280;16191;49.548;8.658;2022-11-20T12:17:02;99848.16;;;5.76;100.00
29121;BME280;16191;49.548;8.658;2022-11-20T12:19:31;99854.88;;;5.83;100.00
29121;BME280;16191;49.548;8.658;2022-11-20T12:24:44;99858.53;;;5.76;100.00
29121;BME280;16191;49.548;8.658;2022-11-20T12:29:48;99854.13;;;5.79;100.00
29121;BME280;16191;49.548;8.658;2022-11-20T12:32:32;99851.13;;;5.95;100.00
29121;BME280;16191;49.548;8.658;2022-11-20T12:43:27;99839.09;;;5.92;100.00
29121;BME280;16191;49.548;8.658;2022-11-20T12:47:10;99847.47;;;6.02;100.00
29121;BME280;16191;49.548;8.658;2022-11-20T12:49:38;99848.31;;;6.02;100.00
29121;BME280;16191;49.548;8.658;2022-11-20T12:52:17;99850.91;;;6.02;100.00
29121;BME280;16191;49.548;8.658;2022-11-20T12:55:07;99852.06;;;5.92;100.00
29121;BME280;16191;49.548;8.658;2022-11-20T12:57:50;99847.47;;;6.02;100.00
29121;BME280;16191;49.548;8.658;2022-11-20T13:00:19;99856.13;;;6.01;100.00
29121;BME280;16191;49.548;8.658;2022-11-20T13:08:19;99840.50;;;6.04;100.00
29121;BME280;16191;49.548;8.658;2022-11-20T13:11:12;99833.31;;;6.13;100.00
29121;BME280;16191;49.548;8.658;2022-11-20T13:16:50;99821.84;;;6.22;100.00
29121;BME280;16191;49.548;8.658;2022-11-20T13:19:19;99819.00;;;6.30;100.00
29121;BME280;16191;49.548;8.658;2022-11-20T13:21:48;99806.94;;;6.29;100.00
29121;BME280;16191;49.548;8.658;2022-11-20T13:29:45;99798.75;;;6.42;100.00
29121;BME280;16191;49.548;8.658;2022-11-20T13:32:18;99800.31;;;6.48;100.00
29121;BME280;16191;49.548;8.658;2022-11-20T13:34:57;99795.13;;;6.48;100.00
29121;BME280;16191;49.548;8.658;2022-11-20T13:37:35;99785.44;;;6.53;100.00
29121;BME280;16191;49.548;8.658;2022-11-20T13:42:44;99783.69;;;6.53;100.00
29121;BME280;16191;49.548;8.658;2022-11-20T13:45:24;99773.94;;;6.62;100.00
29121;BME280;16191;49.548;8.658;2022-11-20T13:47:52;99777.28;;;6.65;100.00
29121;BME280;16191;49.548;8.658;2022-11-20T13:53:27;99773.53;;;6.74;100.00
29121;BME280;16191;49.548;8.658;2022-11-20T13:56:05;99764.56;;;6.84;100.00
29121;BME280;16191;49.548;8.658;2022-11-20T13:58:52;99770.22;;;6.95;100.00
29121;BME280;16191;49.548;8.658;2022-11-20T14:01:28;99762.00;;;7.09;100.00
29121;BME280;16191;49.548;8.658;2022-11-20T14:03:58;99759.31;;;7.12;100.00
29121;BME280;16191;49.548;8.658;2022-11-20T14:06:38;99751.25;;;7.19;100.00
29121;BME280;16191;49.548;8.658;2022-11-20T14:09:11;99750.56;;;7.14;100.00
29121;BME280;16191;49.548;8.658;2022-11-20T14:11:46;99748.34;;;7.29;100.00
29121;BME280;16191;49.548;8.658;2022-11-20T14:14:16;99734.47;;;7.30;100.00
29121;BME280;16191;49.548;8.658;2022-11-20T14:16:43;99734.63;;;7.25;100.00
29121;BME280;16191;49.548;8.658;2022-11-20T14:22:07;99735.84;;;7.38;100.00